Time;durP1;ratioP1;P1;durP2;ratioP2;P2;SDS_P1;SDS_P2;PMS_P1;PMS_P2;Temp;Humidity;BMP_temperature;BMP_pressure;BME280_temperature;BME280_humidity;BME280_pressure;Samples;Min_cycle;Max_cycle;Signal;HPM_P1;HPM_P2
2022/02/19 00:00:47;;;;;;;;;0.00;0.00;;;;;7.93;53.33;101176.38;5039197;28;45315;-44
2022/02/19 00:03:12;;;;;;;;;2.75;1.00;;;;;7.94;53.03;101182.50;5052889;28;45335;-43
2022/02/19 00:05:38;;;;;;;;;2.00;2.00;;;;;7.95;53.12;101184.25;5051621;28;45275;-44
2022/02/19 00:08:04;;;;;;;;;1.00;1.00;;;;;7.92;53.43;101186.84;5045893;28;45404;-46
2022/02/19 00:10:30;;;;;;;;;2.00;1.00;;;;;7.85;53.31;101178.13;5046826;28;45497;-47
2022/02/19 00:12:55;;;;;;;;;2.25;1.00;;;;;7.87;53.11;101176.34;5052770;28;45413;-45
2022/02/19 00:15:21;;;;;;;;;2.50;0.75;;;;;7.84;53.22;101171.13;5051827;28;45372;-44
2022/02/19 00:17:46;;;;;;;;;1.00;1.00;;;;;7.85;53.09;101179.84;5045866;28;45382;-47
2022/02/19 00:20:13;;;;;;;;;3.00;0.75;;;;;7.85;53.47;101200.78;5047260;28;45268;-48
2022/02/19 00:22:39;;;;;;;;;2.00;1.00;;;;;7.84;53.40;101207.75;5052725;28;45445;-47
2022/02/19 00:25:04;;;;;;;;;4.00;1.75;;;;;7.80;53.66;101201.63;5051281;28;46098;-46
2022/02/19 00:27:30;;;;;;;;;0.50;0.00;;;;;7.77;53.63;101196.41;5039778;28;45273;-46
2022/02/19 00:29:55;;;;;;;;;2.00;1.00;;;;;7.79;53.50;101209.50;5050770;28;45176;-46
2022/02/19 00:32:21;;;;;;;;;1.25;1.25;;;;;7.78;53.44;101208.59;5044233;28;45255;-44
2022/02/19 00:34:47;;;;;;;;;2.25;1.00;;;;;7.72;53.55;101192.00;5045157;28;45254;-48
2022/02/19 00:37:12;;;;;;;;;3.00;1.25;;;;;7.72;53.38;101208.59;5052343;28;45368;-46
2022/02/19 00:39:38;;;;;;;;;1.00;1.00;;;;;7.68;53.85;101205.94;5048690;28;45403;-46
2022/02/19 00:42:05;;;;;;;;;2.75;0.25;;;;;7.69;53.79;101212.94;5043725;28;45337;-46
2022/02/19 00:44:32;;;;;;;;;4.00;2.50;;;;;7.67;53.80;101210.28;5046846;28;45479;-44
2022/02/19 00:46:57;;;;;;;;;0.00;0.00;;;;;7.67;53.80;101209.41;5043950;28;45335;-44
2022/02/19 00:49:24;;;;;;;;;0.00;0.00;;;;;7.66;53.74;101216.41;5046793;28;45383;-46
2022/02/19 00:51:49;;;;;;;;;4.00;1.00;;;;;7.64;53.83;101233.81;5052020;28;45494;-45
2022/02/19 00:54:14;;;;;;;;;3.25;2.00;;;;;7.60;53.71;101221.59;5050999;28;45312;-48
2022/02/19 00:56:40;;;;;;;;;3.75;0.50;;;;;7.61;53.77;101228.56;5045129;28;45394;-44
2022/02/19 00:59:05;;;;;;;;;2.00;1.25;;;;;7.62;53.75;101228.59;5046685;28;45249;-47
2022/02/19 01:01:31;;;;;;;;;0.75;0.75;;;;;7.59;53.73;101248.63;5039780;28;45553;-45
2022/02/19 01:03:56;;;;;;;;;3.25;2.00;;;;;7.59;53.89;101241.63;5053370;28;46025;-45
2022/02/19 01:06:21;;;;;;;;;1.00;1.00;;;;;7.58;53.87;101241.63;5047128;28;45327;-45
2022/02/19 01:08:51;;;;;;;;;4.25;0.25;;;;;7.60;53.91;101242.53;5049737;27;45279;-43
2022/02/19 01:11:17;;;;;;;;;1.00;1.00;;;;;7.54;53.88;101239.88;5053675;28;45268;-48
2022/02/19 01:13:43;;;;;;;;;1.00;1.00;;;;;7.56;53.72;101256.44;5055186;28;46186;-46
2022/02/19 01:16:09;;;;;;;;;2.50;1.00;;;;;7.55;53.81;101260.78;5048535;28;45247;-49
2022/02/19 01:18:34;;;;;;;;;1.50;0.00;;;;;7.56;54.03;101261.66;5048648;28;45245;-48
2022/02/19 01:21:00;;;;;;;;;1.00;0.00;;;;;7.53;53.89;101272.13;5028538;28;45264;-47
2022/02/19 01:23:25;;;;;;;;;0.75;0.25;;;;;7.53;53.82;101266.88;5053710;28;47093;-48
2022/02/19 01:25:50;;;;;;;;;1.25;0.00;;;;;7.45;54.07;101262.47;5044092;28;45386;-48
2022/02/19 01:28:16;;;;;;;;;0.00;0.00;;;;;7.49;54.13;101266.84;5042003;28;45416;-47
2022/02/19 01:30:41;;;;;;;;;2.25;0.25;;;;;7.47;53.95;101265.09;5055023;28;45602;-45
2022/02/19 01:33:06;;;;;;;;;0.75;0.00;;;;;7.47;53.91;101265.97;5052712;28;45227;-45
2022/02/19 01:35:32;;;;;;;;;3.00;0.25;;;;;7.46;54.07;101264.22;5045879;28;45170;-48
2022/02/19 01:37:57;;;;;;;;;0.00;0.00;;;;;7.43;54.18;101277.28;5050989;28;45525;-45
2022/02/19 01:40:23;;;;;;;;;2.00;1.00;;;;;7.42;54.15;101267.69;5050933;28;45485;-47
2022/02/19 01:42:48;;;;;;;;;1.50;1.00;;;;;7.41;54.20;101275.50;5052838;28;46884;-45
2022/02/19 01:45:15;;;;;;;;;2.00;1.00;;;;;7.37;54.23;101268.50;5047912;28;45291;-43
2022/02/19 01:47:41;;;;;;;;;3.00;1.50;;;;;7.38;54.21;101270.25;5049989;28;45364;-44
2022/02/19 01:50:08;;;;;;;;;2.50;1.00;;;;;7.34;54.18;101261.50;5054742;28;45315;-45
2022/02/19 01:52:35;;;;;;;;;3.00;1.75;;;;;7.31;54.43;101269.34;5039687;28;47832;-46
2022/02/19 01:55:00;;;;;;;;;2.00;0.75;;;;;7.28;54.35;101271.94;5046324;28;45221;-46
2022/02/19 01:57:26;;;;;;;;;4.75;1.00;;;;;7.27;54.25;101275.41;5049135;28;45267;-45
2022/02/19 01:59:51;;;;;;;;;2.00;2.00;;;;;7.27;54.41;101271.06;5053072;28;46263;-46
2022/02/19 02:02:17;;;;;;;;;3.50;1.25;;;;;7.25;54.44;101270.16;5041274;28;45381;-46
2022/02/19 02:04:43;;;;;;;;;3.25;2.00;;;;;7.23;54.32;101261.44;5054412;28;45417;-45
2022/02/19 02:07:09;;;;;;;;;3.25;2.00;;;;;7.24;54.37;101273.63;5053512;28;45490;-47
2022/02/19 02:09:37;;;;;;;;;1.75;0.00;;;;;7.21;54.55;101273.63;5047295;28;45382;-45
2022/02/19 02:12:03;;;;;;;;;4.00;3.00;;;;;7.23;54.63;101273.63;5046927;28;47376;-46
2022/02/19 02:14:29;;;;;;;;;3.00;1.00;;;;;7.21;54.49;101275.34;5053384;28;45243;-48
2022/02/19 02:16:55;;;;;;;;;1.00;1.00;;;;;7.23;54.57;101281.47;5041049;28;45177;-49
2022/02/19 02:19:20;;;;;;;;;3.00;1.00;;;;;7.16;54.57;101278.81;5054243;28;45219;-49
2022/02/19 02:21:45;;;;;;;;;1.50;0.25;;;;;7.15;54.77;101286.63;5054029;28;45580;-47
2022/02/19 02:24:11;;;;;;;;;3.00;1.00;;;;;7.13;54.77;101278.78;5047244;28;45289;-49
2022/02/19 02:26:38;;;;;;;;;2.00;0.50;;;;;7.11;54.80;101277.88;5046261;28;45434;-45
2022/02/19 02:29:04;;;;;;;;;2.00;2.00;;;;;7.12;54.87;101289.25;5044618;28;45414;-47
2022/02/19 02:31:29;;;;;;;;;1.75;1.00;;;;;7.09;54.85;101281.34;5049903;28;45358;-45
2022/02/19 02:33:55;;;;;;;;;2.25;2.00;;;;;7.06;54.75;101289.19;5033349;28;45335;-45
2022/02/19 02:36:20;;;;;;;;;4.25;1.75;;;;;7.04;54.70;101283.91;5051908;28;45508;-46
2022/02/19 02:38:47;;;;;;;;;3.00;1.75;;;;;7.06;54.88;101297.88;5042936;28;45519;-48
2022/02/19 02:41:15;;;;;;;;;1.25;0.50;;;;;7.07;54.57;101285.69;5039939;28;46186;-45
2022/02/19 02:43:40;;;;;;;;;2.00;0.50;;;;;7.06;54.75;101290.03;5053636;28;45358;-49
2022/02/19 02:46:06;;;;;;;;;1.00;1.00;;;;;7.04;54.96;101275.22;5051955;28;45316;-45
2022/02/19 02:48:31;;;;;;;;;3.25;0.50;;;;;7.03;54.76;101278.69;5045800;28;45452;-47
2022/02/19 02:50:57;;;;;;;;;3.50;1.50;;;;;7.03;54.76;101284.81;5049054;28;45925;-48
2022/02/19 02:53:26;;;;;;;;;0.50;0.50;;;;;7.02;55.02;101285.66;5053734;28;45426;-46
2022/02/19 02:55:52;;;;;;;;;6.50;3.50;;;;;7.02;54.91;101288.28;5052073;28;45424;-45
2022/02/19 02:58:18;;;;;;;;;2.00;2.00;;;;;6.99;54.81;101273.44;5046730;28;45361;-48
2022/02/19 03:00:44;;;;;;;;;1.00;1.00;;;;;7.02;55.04;101280.44;5047973;28;45990;-45
2022/02/19 03:03:09;;;;;;;;;1.00;1.00;;;;;7.02;55.04;101292.59;5053446;28;45460;-46
2022/02/19 03:05:35;;;;;;;;;3.75;2.00;;;;;6.98;54.91;101291.69;5052542;28;45188;-44
2022/02/19 03:08:00;;;;;;;;;2.00;0.00;;;;;6.98;54.84;101292.59;5046773;28;45208;-46
2022/02/19 03:10:26;;;;;;;;;3.75;2.50;;;;;6.93;55.02;101290.78;5048104;28;46221;-47
2022/02/19 03:12:51;;;;;;;;;0.75;0.75;;;;;6.91;55.29;101302.97;5053309;28;45246;-47
2022/02/19 03:15:21;;;;;;;;;3.25;2.25;;;;;6.87;55.30;101293.34;5052197;28;45278;-45
2022/02/19 03:17:47;;;;;;;;;6.25;1.50;;;;;6.90;55.26;101311.66;5046493;27;45351;-48
2022/02/19 03:20:15;;;;;;;;;2.00;0.00;;;;;6.88;55.13;101308.16;5047354;28;46222;-48
2022/02/19 03:22:41;;;;;;;;;3.50;1.25;;;;;6.82;55.38;101307.22;5051950;28;45199;-47
2022/02/19 03:25:06;;;;;;;;;2.00;1.00;;;;;6.82;55.21;101311.59;5051463;28;45399;-46
2022/02/19 03:27:32;;;;;;;;;1.50;1.00;;;;;6.83;55.48;101313.34;5039769;28;45469;-46
2022/02/19 03:29:57;;;;;;;;;1.50;1.00;;;;;6.80;55.38;101318.53;5051372;28;45310;-46
2022/02/19 03:32:22;;;;;;;;;1.75;1.75;;;;;6.81;55.13;101313.31;5046362;28;45656;-49
2022/02/19 03:34:48;;;;;;;;;1.00;1.00;;;;;6.77;55.13;101310.69;5046067;28;45488;-46
2022/02/19 03:37:13;;;;;;;;;2.00;1.50;;;;;6.76;55.16;101322.84;5053149;28;45421;-47
2022/02/19 03:39:38;;;;;;;;;0.75;0.75;;;;;6.80;55.20;101327.22;5048992;28;46913;-46
2022/02/19 03:42:04;;;;;;;;;2.75;1.25;;;;;6.78;55.35;101321.13;5043021;28;45322;-46
2022/02/19 03:44:30;;;;;;;;;3.00;1.25;;;;;6.75;55.42;101323.69;5046988;28;45446;-47
2022/02/19 03:46:55;;;;;;;;;2.00;1.00;;;;;6.77;55.23;101334.19;5053107;28;45370;-47
2022/02/19 03:49:20;;;;;;;;;2.00;0.50;;;;;6.76;55.36;101338.50;5051008;28;45311;-47
2022/02/19 03:51:46;;;;;;;;;4.50;2.50;;;;;6.74;55.17;101334.13;5046103;28;45458;-45
2022/02/19 03:54:11;;;;;;;;;1.50;1.50;;;;;6.73;55.50;101348.03;5048209;28;45237;-46
2022/02/19 03:56:37;;;;;;;;;2.00;2.00;;;;;6.74;55.58;101347.19;5052826;28;45369;-46
2022/02/19 03:59:03;;;;;;;;;2.00;1.25;;;;;6.72;55.43;101347.19;5051207;28;45270;-49
2022/02/19 04:01:28;;;;;;;;;1.75;1.25;;;;;6.67;55.50;101344.50;5027767;28;45277;-44
2022/02/19 04:03:53;;;;;;;;;2.75;1.75;;;;;6.66;55.40;101340.13;5051282;28;45334;-47
2022/02/19 04:06:19;;;;;;;;;0.75;0.75;;;;;6.65;55.59;101346.25;5041267;28;45260;-50
2022/02/19 04:08:44;;;;;;;;;4.00;1.25;;;;;6.65;55.30;101346.25;5039328;28;45926;-48
2022/02/19 04:11:10;;;;;;;;;2.75;1.75;;;;;6.65;55.37;101350.56;5052451;28;45524;-45
2022/02/19 04:13:35;;;;;;;;;0.50;0.50;;;;;6.64;55.49;101360.16;5051216;28;45172;-45
2022/02/19 04:16:02;;;;;;;;;4.25;2.50;;;;;6.61;55.68;101359.25;5045898;28;45440;-46
2022/02/19 04:18:29;;;;;;;;;3.75;2.00;;;;;6.62;55.60;101354.03;5046276;28;46099;-45
2022/02/19 04:20:54;;;;;;;;;1.00;1.00;;;;;6.60;55.55;101362.72;5043004;28;45473;-46
2022/02/19 04:23:20;;;;;;;;;2.00;1.50;;;;;6.58;55.71;101364.41;5047397;28;45473;-44
2022/02/19 04:25:45;;;;;;;;;2.00;0.75;;;;;6.58;55.67;101364.41;5051930;28;45341;-45
2022/02/19 04:28:10;;;;;;;;;1.25;1.25;;;;;6.57;55.62;101370.53;5039176;28;46135;-45
2022/02/19 04:30:37;;;;;;;;;1.25;0.50;;;;;6.55;55.57;101369.63;5052266;28;45248;-44
2022/02/19 04:33:03;;;;;;;;;1.25;0.75;;;;;6.51;55.80;101381.75;5049776;28;45363;-47
2022/02/19 04:35:31;;;;;;;;;2.00;1.00;;;;;6.46;55.79;101384.28;5043095;28;45228;-45
2022/02/19 04:37:57;;;;;;;;;1.00;1.00;;;;;6.47;55.80;101382.56;5050629;28;47498;-44
2022/02/19 04:40:23;;;;;;;;;3.00;0.25;;;;;6.43;55.93;101391.25;5051929;28;45329;-45
2022/02/19 04:42:49;;;;;;;;;1.50;1.50;;;;;6.37;55.91;101385.94;5053975;28;45480;-46
2022/02/19 04:45:15;;;;;;;;;2.00;1.00;;;;;6.39;55.74;101394.63;5047194;28;45429;-47
2022/02/19 04:47:42;;;;;;;;;1.00;0.00;;;;;6.37;55.95;101401.59;5051272;28;46108;-48
2022/02/19 04:50:09;;;;;;;;;2.00;1.00;;;;;6.35;55.93;101401.53;5055511;28;45396;-45
2022/02/19 04:52:34;;;;;;;;;1.75;0.00;;;;;6.34;55.79;101405.91;5052638;28;45342;-45
2022/02/19 04:55:00;;;;;;;;;1.75;1.00;;;;;6.34;55.76;101405.03;5048373;28;45306;-45
2022/02/19 04:57:26;;;;;;;;;1.00;1.00;;;;;6.28;55.97;101411.03;5050398;28;46326;-47
2022/02/19 04:59:51;;;;;;;;;1.75;1.00;;;;;6.29;55.85;101417.13;5049381;28;45475;-47
2022/02/19 05:02:17;;;;;;;;;2.00;1.25;;;;;6.27;55.80;101424.06;5034038;28;45232;-46
2022/02/19 05:04:42;;;;;;;;;2.75;2.00;;;;;6.23;56.10;101420.53;5041794;28;45591;-49
2022/02/19 05:07:07;;;;;;;;;1.25;1.00;;;;;6.25;56.04;101423.16;5040642;28;47621;-46
2022/02/19 05:09:33;;;;;;;;;1.00;1.00;;;;;6.21;55.94;101431.81;5036920;28;45408;-49
2022/02/19 05:11:58;;;;;;;;;3.00;2.00;;;;;6.24;56.11;101442.28;5034005;28;45371;-45
2022/02/19 05:14:24;;;;;;;;;3.00;0.00;;;;;6.22;55.88;101434.44;5046790;28;45403;-47
2022/02/19 05:16:49;;;;;;;;;4.00;1.00;;;;;6.23;56.11;101435.34;5061923;28;45953;-46
2022/02/19 05:19:14;;;;;;;;;2.75;1.25;;;;;6.23;56.18;101435.34;5061903;28;45425;-45
2022/02/19 05:21:40;;;;;;;;;4.00;0.75;;;;;6.24;56.00;101437.06;5048968;28;45342;-49
2022/02/19 05:24:05;;;;;;;;;0.75;0.00;;;;;6.15;55.97;101428.25;5041423;28;45311;-47
2022/02/19 05:26:30;;;;;;;;;6.50;2.75;;;;;6.21;56.06;101442.25;5043465;28;45937;-49
2022/02/19 05:28:56;;;;;;;;;3.50;2.00;;;;;6.20;56.22;101437.88;5044974;28;45403;-49
2022/02/19 05:31:21;;;;;;;;;1.00;1.00;;;;;6.20;56.03;101445.72;5051974;28;45325;-45
2022/02/19 05:33:47;;;;;;;;;4.00;1.75;;;;;6.20;56.14;101443.09;5052409;28;45318;-45
2022/02/19 05:36:12;;;;;;;;;3.25;0.00;;;;;6.20;55.94;101448.31;5041616;28;46270;-45
2022/02/19 05:38:38;;;;;;;;;4.25;2.25;;;;;6.17;56.15;101441.31;5055100;28;45330;-47
2022/02/19 05:41:03;;;;;;;;;2.50;2.00;;;;;6.11;56.18;101439.50;5041117;28;45738;-46
2022/02/19 05:43:28;;;;;;;;;2.25;1.00;;;;;6.10;56.34;101442.97;5039984;28;45488;-44
2022/02/19 05:45:54;;;;;;;;;3.50;1.75;;;;;6.12;56.25;101441.25;5051674;28;46017;-49
2022/02/19 05:48:19;;;;;;;;;2.75;2.00;;;;;6.10;56.25;101440.38;5046588;28;45316;-49
2022/02/19 05:50:45;;;;;;;;;3.50;0.75;;;;;6.09;56.28;101443.81;5051511;28;45489;-46
2022/02/19 05:53:12;;;;;;;;;4.50;2.00;;;;;6.10;56.19;101439.47;5054740;28;45239;-45
2022/02/19 05:55:37;;;;;;;;;2.00;1.00;;;;;6.05;56.24;101435.91;5040929;28;45335;-48
2022/02/19 05:58:03;;;;;;;;;2.50;1.00;;;;;6.08;56.27;101438.59;5044183;28;45378;-49
2022/02/19 06:00:29;;;;;;;;;3.00;2.25;;;;;6.07;56.26;101437.69;5041534;28;45347;-47
2022/02/19 06:02:54;;;;;;;;;2.00;2.00;;;;;6.07;56.19;101440.31;5041573;28;45280;-45
2022/02/19 06:05:20;;;;;;;;;2.75;1.00;;;;;6.07;56.22;101448.13;5051021;28;45390;-49
2022/02/19 06:07:46;;;;;;;;;1.00;1.00;;;;;6.06;56.21;101443.75;5054319;28;45318;-48
2022/02/19 06:10:11;;;;;;;;;2.00;2.00;;;;;6.05;56.19;101446.34;5051543;28;45401;-46
2022/02/19 06:12:37;;;;;;;;;1.00;1.00;;;;;6.01;56.29;101440.19;5047596;28;45640;-50
2022/02/19 06:15:02;;;;;;;;;2.00;1.75;;;;;6.03;56.25;101443.72;5050625;28;45588;-47
2022/02/19 06:17:28;;;;;;;;;2.50;1.00;;;;;6.01;56.27;101451.53;5053121;28;45938;-46
2022/02/19 06:19:53;;;;;;;;;2.75;1.00;;;;;6.01;56.17;101453.25;5041266;28;45381;-44
2022/02/19 06:22:20;;;;;;;;;1.75;1.75;;;;;6.02;56.23;101455.00;5059442;28;45485;-44
2022/02/19 06:24:46;;;;;;;;;3.25;2.00;;;;;5.97;56.38;101456.63;5055207;28;46116;-48
2022/02/19 06:27:12;;;;;;;;;2.75;2.75;;;;;5.92;56.26;101453.06;5043057;28;45216;-47
2022/02/19 06:29:37;;;;;;;;;2.00;2.00;;;;;5.95;56.20;101458.31;5049844;28;45225;-49
2022/02/19 06:32:03;;;;;;;;;3.75;1.00;;;;;5.95;56.17;101461.84;5047125;28;45295;-46
2022/02/19 06:34:28;;;;;;;;;2.00;1.75;;;;;5.92;56.41;101460.91;5049366;28;46282;-47
2022/02/19 06:36:54;;;;;;;;;2.50;2.50;;;;;5.89;56.26;101460.84;5053882;28;45405;-50
2022/02/19 06:39:19;;;;;;;;;3.00;1.75;;;;;5.92;56.28;101479.16;5049457;28;45295;-48
2022/02/19 06:41:45;;;;;;;;;3.00;2.00;;;;;5.88;56.14;101465.19;5043695;28;45400;-49
2022/02/19 06:44:10;;;;;;;;;3.00;1.00;;;;;5.89;56.20;101468.66;5051279;28;46010;-47
2022/02/19 06:46:35;;;;;;;;;5.25;2.00;;;;;5.87;56.41;101479.06;5052389;28;45379;-48
2022/02/19 06:49:01;;;;;;;;;3.75;1.00;;;;;5.86;56.37;101478.22;5050102;28;45295;-50
2022/02/19 06:51:27;;;;;;;;;1.50;1.00;;;;;5.85;56.60;101488.63;5046864;28;45255;-47
2022/02/19 06:53:56;;;;;;;;;1.00;1.00;;;;;5.82;56.29;101489.47;5049434;28;46096;-46
2022/02/19 06:56:25;;;;;;;;;6.25;2.50;;;;;5.80;56.32;101487.69;5053513;28;45242;-49
2022/02/19 06:58:52;;;;;;;;;2.25;2.25;;;;;5.80;56.40;101503.31;5050967;28;45436;-46
2022/02/19 07:01:17;;;;;;;;;5.25;2.50;;;;;5.77;56.39;101506.72;5042396;28;45468;-48
2022/02/19 07:03:43;;;;;;;;;8.75;4.75;;;;;5.73;56.54;101515.34;5051077;28;45351;-47
2022/02/19 07:06:08;;;;;;;;;2.00;2.00;;;;;5.71;56.41;101517.06;5046917;28;45239;-47
2022/02/19 07:08:34;;;;;;;;;3.25;3.00;;;;;5.70;56.61;101526.63;5049629;28;45300;-46
2022/02/19 07:10:59;;;;;;;;;1.75;1.50;;;;;5.68;56.48;101525.69;5053274;28;45679;-49
2022/02/19 07:13:24;;;;;;;;;2.50;1.75;;;;;5.67;56.38;101542.22;5050626;28;46061;-49
2022/02/19 07:15:50;;;;;;;;;7.00;4.00;;;;;5.64;56.48;101523.88;5046745;28;45323;-44
2022/02/19 07:18:15;;;;;;;;;3.75;2.00;;;;;5.66;56.56;101526.53;5050050;28;45670;-46
2022/02/19 07:20:40;;;;;;;;;7.50;4.00;;;;;5.64;56.47;101542.16;5052242;28;45392;-48
2022/02/19 07:23:06;;;;;;;;;7.50;2.50;;;;;5.65;56.62;101543.03;5040171;28;45905;-48
2022/02/19 07:25:31;;;;;;;;;4.75;2.25;;;;;5.64;56.65;101533.47;5053132;28;45258;-48
2022/02/19 07:27:57;;;;;;;;;4.00;2.00;;;;;5.63;56.58;101534.28;5040752;28;45323;-48
2022/02/19 07:30:23;;;;;;;;;3.75;2.75;;;;;5.52;56.73;101521.94;5053808;28;45244;-46
2022/02/19 07:32:51;;;;;;;;;3.00;2.50;;;;;5.62;56.66;101532.53;5048492;28;46678;-48
2022/02/19 07:35:18;;;;;;;;;4.00;2.50;;;;;5.62;56.74;101527.31;5043798;28;45312;-48
2022/02/19 07:37:43;;;;;;;;;4.00;2.75;;;;;5.60;56.67;101531.66;5049807;28;45208;-48
2022/02/19 07:40:09;;;;;;;;;3.75;2.50;;;;;5.61;56.64;101549.03;5047200;28;45395;-45
2022/02/19 07:42:35;;;;;;;;;3.75;3.50;;;;;5.62;56.98;101549.06;5048665;28;45431;-46
2022/02/19 07:45:01;;;;;;;;;4.00;3.00;;;;;5.61;56.65;101559.44;5045934;28;45282;-45
2022/02/19 07:47:28;;;;;;;;;17.00;16.25;;;;;5.62;56.97;101562.13;5051024;28;45236;-46
2022/02/19 07:58:20;;;;;;;;;7.00;4.00;;;;;5.65;56.84;101577.81;5049150;28;45305;-50
2022/02/19 08:00:49;;;;;;;;;3.00;2.00;;;;;5.64;56.86;101583.88;5039345;28;45308;-51
2022/02/19 08:03:15;;;;;;;;;5.00;3.75;;;;;5.63;56.85;101583.84;5052763;28;47027;-51
2022/02/19 08:05:41;;;;;;;;;2.25;2.00;;;;;5.43;57.01;101555.63;5052155;28;45451;-49
2022/02/19 08:08:06;;;;;;;;;4.75;3.50;;;;;5.69;56.91;101597.00;5046068;28;45370;-50
2022/02/19 08:10:32;;;;;;;;;3.00;2.75;;;;;5.72;56.96;101597.06;5046224;28;45528;-46
2022/02/19 08:12:57;;;;;;;;;5.00;5.00;;;;;5.65;57.12;101583.03;5055233;28;45203;-45
2022/02/19 08:15:22;;;;;;;;;7.00;3.00;;;;;5.77;56.90;101598.03;5056049;28;45453;-48
2022/02/19 08:17:48;;;;;;;;;4.25;2.50;;;;;5.79;56.87;101598.06;5049782;28;45387;-45
2022/02/19 08:20:13;;;;;;;;;12.00;7.25;;;;;5.83;56.92;101608.56;5050185;28;45478;-47
2022/02/19 08:22:39;;;;;;;;;3.75;2.25;;;;;5.86;57.15;101605.16;5056176;28;45398;-47
2022/02/19 08:25:04;;;;;;;;;2.75;2.00;;;;;5.91;57.04;101600.91;5053958;28;45263;-48
2022/02/19 08:27:34;;;;;;;;;7.25;3.75;;;;;5.94;57.10;101594.88;5041814;28;45288;-50
2022/02/19 08:30:00;;;;;;;;;6.75;4.00;;;;;5.98;57.12;101607.13;5054805;28;45248;-49
2022/02/19 08:32:26;;;;;;;;;4.50;3.00;;;;;6.04;56.95;101596.84;5048903;28;45998;-46
2022/02/19 08:34:51;;;;;;;;;2.25;2.00;;;;;6.08;57.18;101605.59;5047009;28;45257;-45
2022/02/19 08:37:16;;;;;;;;;5.25;3.00;;;;;6.13;57.12;101604.81;5047824;28;45397;-46
2022/02/19 08:39:42;;;;;;;;;4.00;3.00;;;;;6.19;57.13;101601.44;5050330;28;45376;-47
2022/02/19 08:42:09;;;;;;;;;7.50;3.00;;;;;6.18;56.98;101590.13;5040943;28;47311;-44
2022/02/19 08:44:34;;;;;;;;;4.25;2.00;;;;;6.27;57.47;101594.63;5054205;28;45375;-45
2022/02/19 08:47:00;;;;;;;;;1.25;0.75;;;;;6.31;57.02;101590.34;5048942;28;45426;-49
2022/02/19 08:49:26;;;;;;;;;3.50;1.75;;;;;6.39;57.05;101604.41;5050696;28;45401;-50
2022/02/19 08:51:51;;;;;;;;;3.00;2.00;;;;;6.42;57.11;101604.44;5055241;28;45415;-50
2022/02/19 08:54:16;;;;;;;;;2.00;2.00;;;;;6.45;57.00;101594.06;5054022;28;45357;-48
2022/02/19 08:56:44;;;;;;;;;0.25;0.25;;;;;6.53;57.07;101612.47;5049037;28;45548;-48
2022/02/19 08:59:10;;;;;;;;;2.25;1.00;;;;;6.60;57.28;101603.88;5049868;28;45477;-49
2022/02/19 09:01:35;;;;;;;;;3.00;2.00;;;;;6.64;57.20;101607.41;5041465;28;45315;-49
2022/02/19 09:04:02;;;;;;;;;3.50;3.25;;;;;6.66;57.24;101605.69;5040901;28;45287;-51
2022/02/19 09:06:28;;;;;;;;;3.75;3.00;;;;;6.70;57.05;101599.66;5048014;28;45580;-48
2022/02/19 09:08:53;;;;;;;;;2.25;2.25;;;;;6.79;57.01;101625.06;5049117;28;45368;-50
2022/02/19 09:11:19;;;;;;;;;5.00;2.25;;;;;6.85;57.10;101625.16;5055329;28;45382;-49
2022/02/19 09:13:44;;;;;;;;;4.00;1.25;;;;;6.87;57.21;101622.56;5054613;28;45390;-46
2022/02/19 09:16:09;;;;;;;;;2.25;2.25;;;;;6.94;57.40;101620.09;5048742;28;45362;-47
2022/02/19 09:18:35;;;;;;;;;5.00;3.50;;;;;7.01;57.25;101623.66;5049393;28;45323;-51
2022/02/19 09:21:00;;;;;;;;;8.00;2.75;;;;;7.11;57.05;101633.38;5054959;28;46682;-50
2022/02/19 09:23:26;;;;;;;;;2.50;1.50;;;;;7.16;57.11;101626.47;5041582;28;45485;-51
2022/02/19 09:25:51;;;;;;;;;3.00;3.00;;;;;7.22;57.10;101619.56;5054645;28;45321;-49
2022/02/19 09:28:20;;;;;;;;;2.25;1.00;;;;;7.28;57.20;101620.56;5053861;28;45458;-50
2022/02/19 09:30:46;;;;;;;;;2.75;2.00;;;;;7.36;57.21;101623.28;5044592;28;46145;-48
2022/02/19 09:33:11;;;;;;;;;2.25;1.75;;;;;7.42;57.19;101615.50;5049961;28;45229;-48
2022/02/19 09:35:37;;;;;;;;;5.00;2.00;;;;;7.48;57.11;101607.75;5045180;28;45324;-48
2022/02/19 09:38:03;;;;;;;;;3.50;2.00;;;;;7.55;56.79;101599.97;5050159;28;45453;-54
2022/02/19 09:40:30;;;;;;;;;1.00;1.00;;;;;7.64;56.92;101597.44;5049282;28;45419;-49
2022/02/19 09:42:55;;;;;;;;;3.50;2.50;;;;;7.70;56.65;101602.75;5053407;28;45342;-45
2022/02/19 09:45:23;;;;;;;;;2.50;1.50;;;;;7.73;56.95;101608.00;5048140;27;45297;-47
2022/02/19 09:47:50;;;;;;;;;2.00;2.00;;;;;7.80;56.84;101602.00;5048014;28;45285;-50
2022/02/19 09:50:17;;;;;;;;;4.25;3.00;;;;;7.83;56.97;101611.63;5046825;28;45341;-50
2022/02/19 09:52:42;;;;;;;;;1.00;1.00;;;;;7.89;56.77;101611.69;5048557;28;45228;-51
2022/02/19 09:55:08;;;;;;;;;4.75;2.00;;;;;7.96;56.80;101607.38;5054365;28;45243;-50
2022/02/19 09:57:33;;;;;;;;;4.75;1.00;;;;;8.03;56.73;101598.75;5054277;28;45231;-48
2022/02/19 09:59:59;;;;;;;;;4.00;2.00;;;;;8.08;56.84;101594.41;5040153;28;46690;-49
2022/02/19 10:02:35;;;;;;;;;2.50;1.00;;;;;8.21;56.87;101610.25;5041296;28;45298;-49
2022/02/19 10:05:24;;;;;;;;;8.75;3.25;;;;;8.28;56.77;101604.22;5040039;28;45290;-49
2022/02/19 10:08:01;;;;;;;;;3.25;2.75;;;;;8.34;56.92;101574.56;5040838;28;45437;-50
2022/02/19 10:10:26;;;;;;;;;3.25;1.75;;;;;8.47;56.81;101593.94;5041624;28;45342;-50
2022/02/19 10:12:52;;;;;;;;;7.00;3.00;;;;;8.55;56.61;101597.47;5040980;28;45241;-49
2022/02/19 10:15:18;;;;;;;;;4.50;2.00;;;;;8.60;56.65;101590.53;5041189;28;45469;-51
2022/02/19 10:17:44;;;;;;;;;4.00;3.00;;;;;8.67;56.56;101586.25;5040634;28;45357;-49
2022/02/19 10:20:14;;;;;;;;;4.75;2.25;;;;;8.76;56.47;101583.66;5040693;28;45987;-65
2022/02/19 10:22:41;;;;;;;;;7.75;2.00;;;;;8.86;56.45;101598.59;5040896;28;45379;-48
2022/02/19 10:25:13;;;;;;;;;4.00;3.00;;;;;8.88;56.48;101567.13;5040445;28;45441;-48
2022/02/19 10:28:00;;;;;;;;;2.75;2.00;;;;;9.01;56.34;101574.22;5040682;28;45240;-49
2022/02/19 10:30:29;;;;;;;;;2.00;2.00;;;;;9.11;56.45;101570.75;5054128;28;46293;-52
2022/02/19 10:32:57;;;;;;;;;1.25;1.00;;;;;9.18;56.29;101570.78;5040759;28;45387;-51
2022/02/19 10:35:32;;;;;;;;;2.00;2.00;;;;;9.24;56.30;101587.47;5042701;28;45539;-50
2022/02/19 10:38:01;;;;;;;;;1.00;1.00;;;;;9.31;56.52;101582.22;5049552;28;45455;-49
2022/02/19 10:40:28;;;;;;;;;1.00;1.00;;;;;9.39;56.18;101588.38;5049959;28;47027;-53
2022/02/19 10:42:56;;;;;;;;;6.00;1.00;;;;;9.40;56.02;101579.66;5051453;28;45596;-48
2022/02/19 10:45:21;;;;;;;;;2.50;1.75;;;;;9.51;56.34;101579.66;5047265;28;45276;-51
2022/02/19 10:47:47;;;;;;;;;2.75;2.50;;;;;9.59;55.96;101567.47;5048412;28;45543;-49
2022/02/19 10:50:16;;;;;;;;;2.75;2.00;;;;;9.63;55.97;101577.09;5053847;28;46347;-50
2022/02/19 10:52:44;;;;;;;;;3.50;2.00;;;;;9.72;55.81;101586.75;5040432;28;45240;-50
2022/02/19 10:55:13;;;;;;;;;1.75;1.00;;;;;9.79;55.88;101580.66;5038700;28;45300;-51
2022/02/19 10:57:42;;;;;;;;;1.00;0.75;;;;;9.88;55.82;101585.03;5040455;28;45460;-51
2022/02/19 11:00:12;;;;;;;;;3.00;2.00;;;;;9.96;55.70;101571.91;5045781;28;45228;-48
2022/02/19 11:02:39;;;;;;;;;2.00;1.50;;;;;10.03;55.75;101556.16;5035939;28;45429;-47
2022/02/19 11:05:07;;;;;;;;;2.00;1.00;;;;;10.13;55.52;101553.56;5052353;27;45436;-51
2022/02/19 11:07:35;;;;;;;;;0.00;0.00;;;;;10.20;55.28;101558.81;5053638;28;45251;-50
2022/02/19 11:10:01;;;;;;;;;3.25;3.00;;;;;10.29;55.04;101565.84;5039664;28;45307;-48
2022/02/19 11:12:26;;;;;;;;;2.25;1.00;;;;;10.37;55.28;101563.22;5041992;28;45338;-48
2022/02/19 11:14:53;;;;;;;;;3.00;1.00;;;;;10.42;55.14;101582.50;5051731;27;45368;-51
2022/02/19 11:17:19;;;;;;;;;4.50;2.00;;;;;10.49;55.16;101570.22;5052218;28;45510;-52
2022/02/19 11:19:44;;;;;;;;;2.50;1.75;;;;;10.55;55.07;101564.97;5049178;28;45402;-48
2022/02/19 11:22:10;;;;;;;;;6.00;3.00;;;;;10.62;54.96;101569.34;5046609;27;45398;-50
2022/02/19 11:24:40;;;;;;;;;2.50;2.50;;;;;10.67;54.81;101562.31;5051136;28;45326;-50
2022/02/19 11:27:07;;;;;;;;;3.00;3.00;;;;;10.77;54.77;101557.03;5041588;28;45461;-53
2022/02/19 11:29:33;;;;;;;;;1.50;1.00;;;;;10.82;54.45;101550.06;5048366;28;45565;-52
2022/02/19 11:32:02;;;;;;;;;2.75;1.75;;;;;10.89;54.66;101570.16;5046461;28;45383;-55
2022/02/19 11:34:27;;;;;;;;;2.00;2.00;;;;;10.96;54.61;101558.75;5049161;28;45303;-55
2022/02/19 11:37:12;;;;;;;;;1.00;1.00;;;;;11.01;54.53;101551.72;5039767;28;45536;-55